Budweis, Czech Republic
Current Conditions -  °F | °C
As of 8:20 AM on Thursday 29 Jan 2015 (Local Time) from LOWL Reporting Station
Light Snow Light Snow  
Wind Chill: 30°   Ceiling: 1400
Heat Index: 30°   Visibility: 2.8mi
Dew Point: 30°   Wind: 2mph
Humidity: 100%   Direction: NA
Pressure: 29.53"   Gusts: NA
Location:  48.99°N, 14.56°E
Report Text: LOWL 290620Z VRB02KT 4600 -SN FEW003 SCT006 BKN014 M01/M01 Q1000 BECMG FM0700 7000 NSW SCT014 BKN025
Loading
Personal Weather Stations






























Interactive Weather Map New forecast layout! Learn more

10-Day Weather Forecast

Advertisements
Track Severe Weather on mobile